EZY462 EGPH-EGCC
Flight info
| Callsign | EZY462 |
|---|---|
| Flight time | 0h 42m |
| Altitude | 24000 |
| Route | GOSAM P600 FENIK/N0360F250 L612 LAKEY |
| Aircraft | A20N/M-SDE2E3FGHIRWXY/LB1 |
Departure
| Time | 2026-04-21 09:09 |
|---|---|
| Airport | Edinburgh Airport (EGPH) |
Arrival
| Time | 2026-04-21 09:51 |
|---|---|
| Airport | Manchester Airport (EGCC) |
| Time | Latitude | Longitude | Altitude | Speed | Heading |
|---|---|---|---|---|---|
| 2026-04-21 08:31 | 55.94802 | -3.36624 | 106 ft | 0 kts | 89° |
| 2026-04-21 08:54 | 55.94802 | -3.36623 | 105 ft | 0 kts | 89° |
| 2026-04-21 08:54 | 55.94802 | -3.36622 | 106 ft | 0 kts | 89° |
| 2026-04-21 08:54 | 55.94802 | -3.36621 | 106 ft | 0 kts | 89° |
| 2026-04-21 08:55 | 55.94802 | -3.36620 | 106 ft | 0 kts | 89° |
| 2026-04-21 08:55 | 55.94802 | -3.36633 | 105 ft | 2 kts | 93° |
| 2026-04-21 08:55 | 55.94802 | -3.36652 | 105 ft | 2 kts | 98° |
| 2026-04-21 08:55 | 55.94804 | -3.36672 | 103 ft | 2 kts | 104° |
| 2026-04-21 08:56 | 55.94807 | -3.36690 | 103 ft | 2 kts | 110° |
| 2026-04-21 08:56 | 55.94810 | -3.36709 | 102 ft | 2 kts | 96° |
| 2026-04-21 08:56 | 55.94811 | -3.36728 | 103 ft | 2 kts | 82° |
| 2026-04-21 08:56 | 55.94809 | -3.36747 | 102 ft | 2 kts | 68° |
| 2026-04-21 08:57 | 55.94804 | -3.36765 | 81 ft | 2 kts | 53° |
| 2026-04-21 08:57 | 55.94797 | -3.36779 | 78 ft | 2 kts | 21° |
| 2026-04-21 08:57 | 55.94789 | -3.36783 | 107 ft | 0 kts | 358° |
| 2026-04-21 09:00 | 55.94801 | -3.36784 | 104 ft | 5 kts | 359° |
| 2026-04-21 09:00 | 55.94845 | -3.36784 | 104 ft | 0 kts | 359° |
| 2026-04-21 09:00 | 55.94891 | -3.36800 | 104 ft | 9 kts | 330° |
| 2026-04-21 09:01 | 55.94912 | -3.36929 | 104 ft | 17 kts | 243° |
| 2026-04-21 09:01 | 55.94844 | -3.37139 | 104 ft | 22 kts | 240° |
| 2026-04-21 09:01 | 55.94766 | -3.37362 | 108 ft | 22 kts | 238° |
| 2026-04-21 09:01 | 55.94700 | -3.37555 | 109 ft | 16 kts | 238° |
| 2026-04-21 09:02 | 55.94638 | -3.37736 | 111 ft | 19 kts | 238° |
| 2026-04-21 09:02 | 55.94560 | -3.37960 | 112 ft | 23 kts | 238° |
| 2026-04-21 09:02 | 55.94471 | -3.38236 | 110 ft | 25 kts | 239° |
| 2026-04-21 09:03 | 55.94340 | -3.38612 | 114 ft | 12 kts | 238° |
| 2026-04-21 09:03 | 55.94294 | -3.38748 | 116 ft | 2 kts | 239° |
| 2026-04-21 09:03 | 55.94289 | -3.38765 | 118 ft | 4 kts | 242° |
| 2026-04-21 09:03 | 55.94283 | -3.38822 | 119 ft | 6 kts | 269° |
| 2026-04-21 09:04 | 55.94304 | -3.38883 | 117 ft | 7 kts | 323° |
| 2026-04-21 09:04 | 55.94316 | -3.38897 | 117 ft | 0 kts | 328° |
| 2026-04-21 09:08 | 55.94326 | -3.38908 | 120 ft | 5 kts | 328° |
| 2026-04-21 09:08 | 55.94376 | -3.38957 | 115 ft | 11 kts | 336° |
| 2026-04-21 09:08 | 55.94428 | -3.38929 | 117 ft | 0 kts | 53° |
| 2026-04-21 09:08 | 55.94433 | -3.38916 | 118 ft | 3 kts | 56° |
| 2026-04-21 09:09 | 55.94593 | -3.38447 | 111 ft | 91 kts | 58° |
| 2026-04-21 09:09 | 55.95037 | -3.37136 | 371 ft | 140 kts | 59° |
| 2026-04-21 09:09 | 55.95615 | -3.35506 | 1014 ft | 171 kts | 58° |
| 2026-04-21 09:09 | 55.96387 | -3.33692 | 1789 ft | 198 kts | 49° |
| 2026-04-21 09:10 | 55.97436 | -3.31884 | 2520 ft | 222 kts | 44° |
| 2026-04-21 09:10 | 55.98675 | -3.30035 | 3341 ft | 242 kts | 41° |
| 2026-04-21 09:10 | 56.00096 | -3.28018 | 3603 ft | 284 kts | 38° |
| 2026-04-21 09:10 | 56.01962 | -3.26579 | 4436 ft | 301 kts | 13° |
| 2026-04-21 09:11 | 56.04118 | -3.26637 | 5209 ft | 326 kts | 351° |
| 2026-04-21 09:11 | 56.06244 | -3.28351 | 6021 ft | 342 kts | 323° |
| 2026-04-21 09:11 | 56.07609 | -3.31757 | 7373 ft | 344 kts | 292° |
| 2026-04-21 09:11 | 56.07984 | -3.35978 | 8356 ft | 348 kts | 264° |
| 2026-04-21 09:12 | 56.07284 | -3.40171 | 8917 ft | 363 kts | 238° |
| 2026-04-21 09:12 | 56.05632 | -3.43728 | 9086 ft | 384 kts | 218° |
| 2026-04-21 09:12 | 56.03625 | -3.46820 | 10068 ft | 383 kts | 218° |
| 2026-04-21 09:12 | 56.01873 | -3.50254 | 11705 ft | 366 kts | 231° |
| 2026-04-21 09:13 | 56.00607 | -3.54141 | 13167 ft | 362 kts | 241° |
| 2026-04-21 09:13 | 55.99658 | -3.58412 | 13859 ft | 378 kts | 249° |
| 2026-04-21 09:13 | 55.98927 | -3.62978 | 14640 ft | 386 kts | 253° |
| 2026-04-21 09:13 | 55.98279 | -3.67652 | 15469 ft | 389 kts | 254° |
| 2026-04-21 09:14 | 55.97638 | -3.72378 | 16116 ft | 399 kts | 254° |
| 2026-04-21 09:14 | 55.96954 | -3.77305 | 16347 ft | 418 kts | 253° |
| 2026-04-21 09:14 | 55.96222 | -3.82455 | 16565 ft | 436 kts | 253° |
| 2026-04-21 09:14 | 55.95453 | -3.87792 | 16775 ft | 452 kts | 253° |
| 2026-04-21 09:15 | 55.94657 | -3.93275 | 17275 ft | 459 kts | 253° |
| 2026-04-21 09:15 | 55.93823 | -3.98787 | 17931 ft | 461 kts | 249° |
| 2026-04-21 09:15 | 55.92514 | -4.04000 | 18568 ft | 460 kts | 236° |
| 2026-04-21 09:15 | 55.90615 | -4.08543 | 19305 ft | 453 kts | 223° |
| 2026-04-21 09:16 | 55.88256 | -4.12178 | 20049 ft | 446 kts | 210° |
| 2026-04-21 09:16 | 55.85557 | -4.14791 | 20814 ft | 439 kts | 200° |
| 2026-04-21 09:16 | 55.82765 | -4.16959 | 21582 ft | 438 kts | 200° |
| 2026-04-21 09:16 | 55.80068 | -4.19339 | 22374 ft | 438 kts | 204° |
| 2026-04-21 09:17 | 55.77414 | -4.22010 | 23173 ft | 436 kts | 202° |
| 2026-04-21 09:17 | 55.74626 | -4.24008 | 23976 ft | 429 kts | 193° |
| 2026-04-21 09:17 | 55.71742 | -4.25096 | 24667 ft | 421 kts | 180° |
| 2026-04-21 09:17 | 55.68856 | -4.24990 | 25080 ft | 410 kts | 167° |
| 2026-04-21 09:18 | 55.66128 | -4.23725 | 25186 ft | 402 kts | 155° |
| 2026-04-21 09:18 | 55.63594 | -4.21675 | 25289 ft | 399 kts | 149° |
| 2026-04-21 09:18 | 55.61164 | -4.19298 | 25391 ft | 398 kts | 147° |
| 2026-04-21 09:18 | 55.58772 | -4.16853 | 25484 ft | 398 kts | 147° |
| 2026-04-21 09:19 | 55.56369 | -4.14412 | 25519 ft | 398 kts | 147° |
| 2026-04-21 09:19 | 55.53957 | -4.12002 | 25516 ft | 398 kts | 147° |
| 2026-04-21 09:19 | 55.51540 | -4.09622 | 25512 ft | 398 kts | 148° |
| 2026-04-21 09:19 | 55.49117 | -4.07255 | 25504 ft | 398 kts | 148° |
| 2026-04-21 09:20 | 55.46691 | -4.04896 | 25505 ft | 398 kts | 148° |
| 2026-04-21 09:20 | 55.44268 | -4.02544 | 25511 ft | 396 kts | 148° |
| 2026-04-21 09:20 | 55.41861 | -4.00213 | 25509 ft | 395 kts | 148° |
| 2026-04-21 09:20 | 55.39448 | -3.97878 | 25501 ft | 396 kts | 148° |
| 2026-04-21 09:21 | 55.37031 | -3.95542 | 25499 ft | 396 kts | 148° |
| 2026-04-21 09:21 | 55.34619 | -3.93214 | 25499 ft | 396 kts | 148° |
| 2026-04-21 09:21 | 55.32236 | -3.90917 | 25498 ft | 396 kts | 148° |
| 2026-04-21 09:21 | 55.29819 | -3.88591 | 25495 ft | 396 kts | 148° |
| 2026-04-21 09:22 | 55.28188 | -3.87022 | 25495 ft | 396 kts | 148° |
| 2026-04-21 09:22 | 55.24989 | -3.83948 | 25455 ft | 397 kts | 148° |
| 2026-04-21 09:22 | 55.23378 | -3.82403 | 25463 ft | 397 kts | 148° |
| 2026-04-21 09:22 | 55.20134 | -3.79298 | 25476 ft | 398 kts | 149° |
| 2026-04-21 09:23 | 55.18523 | -3.77756 | 25466 ft | 399 kts | 149° |
| 2026-04-21 09:23 | 55.16090 | -3.75433 | 25471 ft | 399 kts | 149° |
| 2026-04-21 09:23 | 55.13650 | -3.73107 | 25475 ft | 400 kts | 149° |
| 2026-04-21 09:23 | 55.11213 | -3.70787 | 25494 ft | 395 kts | 149° |
| 2026-04-21 09:24 | 55.08823 | -3.68518 | 25496 ft | 393 kts | 149° |
| 2026-04-21 09:24 | 55.06382 | -3.66196 | 25492 ft | 402 kts | 149° |
| 2026-04-21 09:24 | 55.03935 | -3.63875 | 25492 ft | 400 kts | 149° |
| 2026-04-21 09:24 | 55.01490 | -3.61559 | 25490 ft | 400 kts | 149° |
| 2026-04-21 09:25 | 54.99040 | -3.59243 | 25492 ft | 400 kts | 149° |
| 2026-04-21 09:25 | 54.96588 | -3.56928 | 25492 ft | 400 kts | 149° |
| 2026-04-21 09:25 | 54.94139 | -3.54617 | 25500 ft | 400 kts | 149° |
| 2026-04-21 09:25 | 54.91723 | -3.52342 | 25492 ft | 399 kts | 149° |
| 2026-04-21 09:26 | 54.89279 | -3.50043 | 25491 ft | 399 kts | 149° |
| 2026-04-21 09:26 | 54.86833 | -3.47747 | 25492 ft | 399 kts | 149° |
| 2026-04-21 09:26 | 54.84390 | -3.45457 | 25485 ft | 399 kts | 149° |
| 2026-04-21 09:26 | 54.81945 | -3.43167 | 25486 ft | 399 kts | 149° |
| 2026-04-21 09:27 | 54.79505 | -3.40885 | 25478 ft | 399 kts | 149° |
| 2026-04-21 09:27 | 54.77055 | -3.38597 | 25479 ft | 399 kts | 149° |
| 2026-04-21 09:27 | 54.74608 | -3.36315 | 25479 ft | 399 kts | 149° |
| 2026-04-21 09:27 | 54.72155 | -3.34064 | 25479 ft | 400 kts | 152° |
| 2026-04-21 09:28 | 54.69609 | -3.32098 | 25468 ft | 401 kts | 154° |
| 2026-04-21 09:28 | 54.67042 | -3.30175 | 25462 ft | 402 kts | 154° |
| 2026-04-21 09:28 | 54.64472 | -3.28250 | 25460 ft | 402 kts | 154° |
| 2026-04-21 09:28 | 54.61905 | -3.26328 | 25463 ft | 402 kts | 155° |
| 2026-04-21 09:29 | 54.59337 | -3.24405 | 25460 ft | 402 kts | 154° |
| 2026-04-21 09:29 | 54.56767 | -3.22483 | 25446 ft | 402 kts | 154° |
| 2026-04-21 09:29 | 54.54206 | -3.20570 | 25080 ft | 401 kts | 154° |
| 2026-04-21 09:29 | 54.51655 | -3.18667 | 24558 ft | 398 kts | 154° |
| 2026-04-21 09:30 | 54.49154 | -3.16806 | 23894 ft | 395 kts | 154° |
| 2026-04-21 09:30 | 54.46630 | -3.14926 | 22884 ft | 397 kts | 154° |
| 2026-04-21 09:30 | 54.44084 | -3.13031 | 21811 ft | 400 kts | 154° |
| 2026-04-21 09:30 | 54.41549 | -3.11150 | 21444 ft | 396 kts | 154° |
| 2026-04-21 09:31 | 54.38956 | -3.09225 | 21336 ft | 410 kts | 154° |
| 2026-04-21 09:31 | 54.36335 | -3.07286 | 21205 ft | 409 kts | 154° |
| 2026-04-21 09:31 | 54.33723 | -3.05358 | 21081 ft | 410 kts | 154° |
| 2026-04-21 09:31 | 54.31093 | -3.03418 | 20977 ft | 410 kts | 154° |
| 2026-04-21 09:32 | 54.28474 | -3.01490 | 20842 ft | 410 kts | 154° |
| 2026-04-21 09:32 | 54.25874 | -2.99577 | 20719 ft | 409 kts | 154° |
| 2026-04-21 09:32 | 54.23320 | -2.97451 | 20611 ft | 408 kts | 148° |
| 2026-04-21 09:32 | 54.20938 | -2.94857 | 20103 ft | 405 kts | 145° |
| 2026-04-21 09:33 | 54.18587 | -2.92195 | 19006 ft | 406 kts | 145° |
| 2026-04-21 09:33 | 54.16224 | -2.89521 | 17540 ft | 408 kts | 145° |
| 2026-04-21 09:33 | 54.13858 | -2.86855 | 16146 ft | 406 kts | 145° |
| 2026-04-21 09:33 | 54.11514 | -2.84226 | 14892 ft | 399 kts | 144° |
| 2026-04-21 09:34 | 54.09222 | -2.81663 | 13982 ft | 386 kts | 144° |
| 2026-04-21 09:34 | 54.07046 | -2.79238 | 13613 ft | 359 kts | 144° |
| 2026-04-21 09:34 | 54.05028 | -2.76993 | 13198 ft | 338 kts | 144° |
| 2026-04-21 09:34 | 54.03083 | -2.74827 | 12335 ft | 332 kts | 144° |
| 2026-04-21 09:35 | 54.01188 | -2.72714 | 12091 ft | 322 kts | 144° |
| 2026-04-21 09:35 | 53.99320 | -2.70635 | 11897 ft | 321 kts | 144° |
| 2026-04-21 09:35 | 53.97443 | -2.68546 | 11174 ft | 325 kts | 144° |
| 2026-04-21 09:35 | 53.95547 | -2.66440 | 10318 ft | 326 kts | 144° |
| 2026-04-21 09:36 | 53.93655 | -2.64344 | 9456 ft | 322 kts | 144° |
| 2026-04-21 09:36 | 53.91794 | -2.62285 | 8621 ft | 317 kts | 144° |
| 2026-04-21 09:36 | 53.89961 | -2.60268 | 7990 ft | 308 kts | 143° |
| 2026-04-21 09:36 | 53.88228 | -2.58359 | 7754 ft | 287 kts | 143° |
| 2026-04-21 09:37 | 53.86614 | -2.56585 | 7577 ft | 266 kts | 143° |
| 2026-04-21 09:37 | 53.85115 | -2.54936 | 7405 ft | 247 kts | 143° |
| 2026-04-21 09:37 | 53.83740 | -2.53424 | 7208 ft | 232 kts | 142° |
| 2026-04-21 09:37 | 53.82415 | -2.51963 | 7075 ft | 230 kts | 142° |
| 2026-04-21 09:38 | 53.81061 | -2.50458 | 6993 ft | 230 kts | 142° |
| 2026-04-21 09:38 | 53.79725 | -2.48986 | 6991 ft | 230 kts | 142° |
| 2026-04-21 09:38 | 53.78382 | -2.47506 | 6987 ft | 230 kts | 142° |
| 2026-04-21 09:38 | 53.77040 | -2.46032 | 6989 ft | 230 kts | 142° |
| 2026-04-21 09:39 | 53.75693 | -2.44554 | 6992 ft | 230 kts | 142° |
| 2026-04-21 09:39 | 53.74352 | -2.43085 | 6969 ft | 229 kts | 142° |
| 2026-04-21 09:39 | 53.73021 | -2.41630 | 6750 ft | 227 kts | 142° |
| 2026-04-21 09:39 | 53.71691 | -2.40177 | 6406 ft | 228 kts | 142° |
| 2026-04-21 09:40 | 53.70344 | -2.38701 | 5982 ft | 232 kts | 142° |
| 2026-04-21 09:40 | 53.68998 | -2.37230 | 5637 ft | 231 kts | 142° |
| 2026-04-21 09:40 | 53.67620 | -2.35815 | 5340 ft | 233 kts | 151° |
| 2026-04-21 09:40 | 53.66022 | -2.35343 | 5011 ft | 245 kts | 179° |
| 2026-04-21 09:41 | 53.64299 | -2.35987 | 4678 ft | 252 kts | 189° |
| 2026-04-21 09:41 | 53.62568 | -2.36756 | 4770 ft | 266 kts | 189° |
| 2026-04-21 09:41 | 53.60787 | -2.37549 | 4872 ft | 263 kts | 189° |
| 2026-04-21 09:41 | 53.59091 | -2.38657 | 4802 ft | 261 kts | 204° |
| 2026-04-21 09:42 | 53.57535 | -2.40143 | 4479 ft | 255 kts | 205° |
| 2026-04-21 09:42 | 53.56000 | -2.41612 | 4074 ft | 253 kts | 205° |
| 2026-04-21 09:42 | 53.54469 | -2.43057 | 3671 ft | 252 kts | 205° |
| 2026-04-21 09:42 | 53.52938 | -2.44481 | 3253 ft | 251 kts | 205° |
| 2026-04-21 09:43 | 53.51430 | -2.45889 | 3069 ft | 250 kts | 205° |
| 2026-04-21 09:43 | 53.49890 | -2.47251 | 2988 ft | 248 kts | 201° |
| 2026-04-21 09:43 | 53.48315 | -2.48443 | 2985 ft | 249 kts | 200° |
| 2026-04-21 09:43 | 53.46733 | -2.49623 | 2986 ft | 249 kts | 200° |
| 2026-04-21 09:44 | 53.45161 | -2.50801 | 2979 ft | 246 kts | 200° |
| 2026-04-21 09:44 | 53.43587 | -2.51979 | 2990 ft | 248 kts | 200° |
| 2026-04-21 09:44 | 53.42009 | -2.53164 | 2984 ft | 249 kts | 200° |
| 2026-04-21 09:44 | 53.40422 | -2.54356 | 2988 ft | 249 kts | 200° |
| 2026-04-21 09:45 | 53.38842 | -2.55540 | 2989 ft | 248 kts | 196° |
| 2026-04-21 09:45 | 53.37196 | -2.55913 | 2996 ft | 240 kts | 171° |
| 2026-04-21 09:45 | 53.35524 | -2.55718 | 2996 ft | 241 kts | 170° |
| 2026-04-21 09:45 | 53.33863 | -2.55517 | 2982 ft | 237 kts | 170° |
| 2026-04-21 09:46 | 53.32216 | -2.55318 | 2991 ft | 240 kts | 170° |
| 2026-04-21 09:46 | 53.30560 | -2.55122 | 2990 ft | 239 kts | 171° |
| 2026-04-21 09:46 | 53.28890 | -2.54925 | 2993 ft | 239 kts | 171° |
| 2026-04-21 09:46 | 53.27237 | -2.54699 | 2991 ft | 236 kts | 166° |
| 2026-04-21 09:47 | 53.25619 | -2.54292 | 2980 ft | 228 kts | 156° |
| 2026-04-21 09:47 | 53.24458 | -2.52855 | 2979 ft | 198 kts | 114° |
| 2026-04-21 09:47 | 53.24266 | -2.50792 | 3023 ft | 172 kts | 78° |
| 2026-04-21 09:47 | 53.24667 | -2.49009 | 2957 ft | 159 kts | 63° |
| 2026-04-21 09:48 | 53.25283 | -2.47439 | 2770 ft | 163 kts | 55° |
| 2026-04-21 09:48 | 53.25976 | -2.45961 | 2538 ft | 160 kts | 53° |
| 2026-04-21 09:48 | 53.26653 | -2.44552 | 2309 ft | 154 kts | 53° |
| 2026-04-21 09:48 | 53.27277 | -2.43280 | 2138 ft | 132 kts | 53° |
| 2026-04-21 09:49 | 53.27855 | -2.42085 | 1934 ft | 130 kts | 53° |
| 2026-04-21 09:49 | 53.28419 | -2.40922 | 1758 ft | 129 kts | 53° |
| 2026-04-21 09:49 | 53.28986 | -2.39752 | 1577 ft | 131 kts | 53° |
| 2026-04-21 09:49 | 53.29566 | -2.38551 | 1395 ft | 133 kts | 53° |
| 2026-04-21 09:50 | 53.30144 | -2.37366 | 1213 ft | 132 kts | 54° |
| 2026-04-21 09:50 | 53.30717 | -2.36170 | 1030 ft | 132 kts | 55° |
| 2026-04-21 09:50 | 53.31289 | -2.34994 | 838 ft | 127 kts | 53° |
| 2026-04-21 09:50 | 53.31864 | -2.33816 | 669 ft | 137 kts | 53° |
| 2026-04-21 09:51 | 53.32488 | -2.32514 | 487 ft | 144 kts | 52° |
| 2026-04-21 09:51 | 53.33070 | -2.31342 | 327 ft | 122 kts | 54° |
| 2026-04-21 09:51 | 53.33563 | -2.30326 | 244 ft | 103 kts | 56° |
| 2026-04-21 09:51 | 53.33886 | -2.29642 | 239 ft | 40 kts | 51° |
| 2026-04-21 09:52 | 53.34048 | -2.29311 | 246 ft | 21 kts | 48° |
| 2026-04-21 09:52 | 53.34087 | -2.29232 | 247 ft | 9 kts | 51° |
| 2026-04-21 09:52 | 53.34135 | -2.29131 | 249 ft | 12 kts | 51° |
| 2026-04-21 09:52 | 53.34195 | -2.29004 | 249 ft | 16 kts | 52° |
| 2026-04-21 09:53 | 53.34274 | -2.28835 | 250 ft | 20 kts | 52° |
| 2026-04-21 09:53 | 53.34372 | -2.28669 | 251 ft | 21 kts | 44° |
| 2026-04-21 09:53 | 53.34487 | -2.28548 | 256 ft | 18 kts | 24° |
| 2026-04-21 09:53 | 53.34594 | -2.28481 | 259 ft | 0 kts | 21° |
| 2026-04-21 09:55 | 53.34595 | -2.28480 | 259 ft | 1 kts | 21° |
| 2026-04-21 09:55 | 53.34612 | -2.28469 | 259 ft | 5 kts | 21° |
| 2026-04-21 09:55 | 53.34666 | -2.28434 | 260 ft | 12 kts | 21° |
| 2026-04-21 09:55 | 53.34742 | -2.28336 | 260 ft | 16 kts | 60° |
| 2026-04-21 09:56 | 53.34815 | -2.28182 | 260 ft | 19 kts | 51° |
| 2026-04-21 09:56 | 53.34900 | -2.28015 | 259 ft | 17 kts | 50° |
| 2026-04-21 09:56 | 53.34982 | -2.27999 | 256 ft | 13 kts | 330° |
| 2026-04-21 09:56 | 53.35065 | -2.28114 | 255 ft | 18 kts | 318° |
| 2026-04-21 09:57 | 53.35151 | -2.28200 | 254 ft | 0 kts | 354° |
| 2026-04-21 09:57 | 53.35152 | -2.28200 | 254 ft | 0 kts | 354° |
| 2026-04-21 09:57 | 53.35155 | -2.28201 | 254 ft | 2 kts | 354° |
| 2026-04-21 09:58 | 53.35190 | -2.28201 | 254 ft | 8 kts | 4° |
| 2026-04-21 09:58 | 53.35257 | -2.28190 | 254 ft | 10 kts | 7° |
| 2026-04-21 09:58 | 53.35323 | -2.28177 | 253 ft | 9 kts | 7° |
| 2026-04-21 09:58 | 53.35382 | -2.28164 | 253 ft | 8 kts | 8° |
| 2026-04-21 09:59 | 53.35441 | -2.28152 | 253 ft | 10 kts | 7° |
| 2026-04-21 09:59 | 53.35519 | -2.28098 | 253 ft | 14 kts | 36° |
| 2026-04-21 09:59 | 53.35578 | -2.27997 | 252 ft | 15 kts | 51° |
| 2026-04-21 09:59 | 53.35628 | -2.27898 | 251 ft | 12 kts | 41° |
| 2026-04-21 10:00 | 53.35718 | -2.27883 | 250 ft | 15 kts | 9° |
| 2026-04-21 10:00 | 53.35823 | -2.27859 | 250 ft | 15 kts | 7° |
| 2026-04-21 10:00 | 53.35934 | -2.27849 | 249 ft | 17 kts | 9° |
| 2026-04-21 10:00 | 53.36046 | -2.27842 | 249 ft | 16 kts | 344° |
| 2026-04-21 10:01 | 53.36121 | -2.27944 | 249 ft | 0 kts | 313° |
| 2026-04-21 10:01 | 53.36162 | -2.28010 | 250 ft | 14 kts | 316° |
| 2026-04-21 10:01 | 53.36242 | -2.28083 | 250 ft | 15 kts | 21° |
| 2026-04-21 10:01 | 53.36289 | -2.28059 | 250 ft | 2 kts | 15° |
| 2026-04-21 10:02 | 53.36351 | -2.28005 | 249 ft | 9 kts | 49° |
| 2026-04-21 10:02 | 53.36406 | -2.27927 | 248 ft | 11 kts | 7° |
| 2026-04-21 10:02 | 53.36431 | -2.27937 | 247 ft | 2 kts | 336° |
| 2026-04-21 10:03 | 53.36460 | -2.27946 | 247 ft | 6 kts | 14° |
| 2026-04-21 10:03 | 53.36501 | -2.27896 | 247 ft | 9 kts | 45° |
| 2026-04-21 10:03 | 53.36520 | -2.27865 | 246 ft | 3 kts | 45° |
| 2026-04-21 10:03 | 53.36523 | -2.27859 | 246 ft | 0 kts | 45° |